Time;durP1;ratioP1;P1;durP2;ratioP2;P2;SDS_P1;SDS_P2;PMS_P1;PMS_P2;Temp;Humidity;BMP_temperature;BMP_pressure;BME280_temperature;BME280_humidity;BME280_pressure;Samples;Min_cycle;Max_cycle;Signal;HPM_P1;HPM_P2
2022/04/05 00:01:40;;;;;;;14.70;12.60;;;3.70;1.00;;;;;;5050693;28;20202;-71
2022/04/05 00:04:07;;;;;;;18.10;12.67;;;3.70;1.00;;;;;;5051078;28;20206;-70
2022/04/05 00:06:34;;;;;;;16.50;12.40;;;3.70;1.00;;;;;;5050675;28;20720;-71
2022/04/05 00:09:01;;;;;;;14.37;11.07;;;3.70;1.00;;;;;;5050662;28;20202;-70
2022/04/05 00:11:28;;;;;;;17.90;14.17;;;3.70;1.00;;;;;;5050325;28;20214;-73
2022/04/05 00:13:56;;;;;;;18.80;14.40;;;3.70;1.00;;;;;;5050676;28;20207;-73
2022/04/05 00:16:23;;;;;;;17.73;12.90;;;3.70;1.00;;;;;;5050487;28;20238;-71
2022/04/05 00:18:50;;;;;;;15.57;13.00;;;3.70;1.00;;;;;;5050454;28;20675;-71
2022/04/05 00:21:17;;;;;;;16.10;12.40;;;3.50;1.00;;;;;;5050205;28;20206;-72
2022/04/05 00:23:44;;;;;;;15.93;12.57;;;3.60;1.00;;;;;;5050585;28;20260;-71
2022/04/05 00:26:11;;;;;;;17.57;13.60;;;3.50;1.00;;;;;;5050139;28;20214;-71
2022/04/05 00:28:38;;;;;;;16.10;12.03;;;3.60;1.00;;;;;;5050738;28;20211;-71
2022/04/05 00:31:06;;;;;;;16.30;13.27;;;3.50;1.00;;;;;;5069441;28;20708;-72
2022/04/05 00:33:33;;;;;;;16.33;13.60;;;3.50;1.00;;;;;;5070304;28;20206;-71
2022/04/05 00:36:00;;;;;;;18.10;11.53;;;3.50;1.00;;;;;;5070432;28;20287;-71
2022/04/05 00:38:27;;;;;;;15.37;11.93;;;3.60;1.00;;;;;;5070191;28;20208;-71
2022/04/05 00:40:54;;;;;;;14.87;11.83;;;3.50;1.00;;;;;;5070393;28;20198;-72
2022/04/05 00:43:21;;;;;;;14.57;11.33;;;3.40;1.00;;;;;;5070342;28;20202;-71
2022/04/05 00:45:48;;;;;;;12.03;10.37;;;3.50;1.00;;;;;;5070592;28;20206;-71
2022/04/05 00:48:30;;;;;;;14.53;11.57;;;3.50;1.00;;;;;;5071128;28;20255;-71
2022/04/05 00:50:57;;;;;;;11.90;10.17;;;3.50;1.00;;;;;;5074369;28;20202;-72
2022/04/05 00:53:25;;;;;;;12.87;11.30;;;3.40;1.00;;;;;;5073912;28;20251;-71
2022/04/05 00:55:54;;;;;;;13.93;10.23;;;3.50;1.00;;;;;;5074432;28;20577;-71
2022/04/05 00:58:24;;;;;;;10.63;9.20;;;3.50;1.00;;;;;;5073787;28;20212;-71
2022/04/05 01:00:52;;;;;;;14.67;10.30;;;3.60;1.00;;;;;;5074006;28;20670;-71
2022/04/05 01:03:22;;;;;;;13.47;10.90;;;3.60;1.00;;;;;;5073633;28;20206;-70
2022/04/05 01:05:50;;;;;;;12.57;9.60;;;3.60;1.00;;;;;;5074110;28;20202;-70
2022/04/05 01:08:20;;;;;;;12.13;8.63;;;3.60;1.00;;;;;;5073642;28;20207;-70
2022/04/05 01:10:48;;;;;;;13.23;10.00;;;3.50;1.00;;;;;;5074194;28;20209;-70
2022/04/05 01:13:15;;;;;;;11.77;9.37;;;3.50;1.00;;;;;;5073612;28;20267;-70
2022/04/05 01:15:42;;;;;;;10.13;8.67;;;3.40;1.00;;;;;;5073848;28;20670;-70
2022/04/05 01:18:09;;;;;;;11.50;9.27;;;3.40;1.00;;;;;;5073574;28;20321;-70
2022/04/05 01:20:37;;;;;;;13.33;9.37;;;3.40;1.00;;;;;;5074063;28;20202;-70
2022/04/05 01:23:04;;;;;;;14.30;9.17;;;3.40;1.00;;;;;;5074250;28;20243;-69
2022/04/05 01:25:33;;;;;;;11.30;8.70;;;3.20;1.00;;;;;;5073107;28;20674;-70
2022/04/05 01:27:59;;;;;;;12.10;9.47;;;3.30;1.00;;;;;;5073823;28;20206;-70
2022/04/05 01:30:26;;;;;;;11.80;10.00;;;3.30;1.00;;;;;;5073342;28;20203;-70
2022/04/05 01:32:59;;;;;;;10.77;9.10;;;3.30;1.00;;;;;;5073389;28;20256;-70
2022/04/05 01:35:26;;;;;;;11.90;9.63;;;3.30;1.00;;;;;;5073253;28;20202;-70
2022/04/05 01:37:53;;;;;;;11.13;8.77;;;3.30;1.00;;;;;;5073595;28;20230;-70
2022/04/05 01:40:20;;;;;;;11.83;8.83;;;3.30;1.00;;;;;;5073341;28;20247;-70
2022/04/05 01:42:48;;;;;;;10.20;8.57;;;3.30;1.00;;;;;;5071404;28;20593;-70
2022/04/05 01:45:15;;;;;;;11.60;8.77;;;3.20;1.00;;;;;;5052914;28;20260;-70
2022/04/05 01:47:43;;;;;;;13.70;9.80;;;3.20;1.00;;;;;;5053277;28;20211;-70
2022/04/05 01:50:10;;;;;;;12.13;8.37;;;3.20;1.00;;;;;;5053443;28;20253;-70
2022/04/05 01:52:37;;;;;;;14.13;8.43;;;3.20;1.00;;;;;;5053721;28;20211;-68
2022/04/05 01:55:05;;;;;;;13.90;9.70;;;3.10;1.00;;;;;;5053709;28;20257;-70
2022/04/05 01:57:32;;;;;;;12.17;9.03;;;3.10;1.00;;;;;;5052721;28;20238;-72
2022/04/05 02:00:01;;;;;;;12.30;8.53;;;3.10;1.00;;;;;;5051900;28;20257;-72
2022/04/05 02:02:29;;;;;;;10.80;8.80;;;3.20;1.00;;;;;;5052648;28;20211;-72
2022/04/05 02:04:56;;;;;;;13.53;7.77;;;3.20;1.00;;;;;;5053016;28;20688;-72
2022/04/05 02:07:23;;;;;;;10.80;8.27;;;3.00;1.00;;;;;;5052588;28;20202;-71
2022/04/05 02:09:50;;;;;;;11.83;7.87;;;2.90;1.00;;;;;;5053124;28;20206;-70
2022/04/05 02:12:18;;;;;;;12.87;10.47;;;2.70;1.00;;;;;;5052518;28;20260;-71
2022/04/05 02:14:45;;;;;;;11.53;8.50;;;2.70;1.00;;;;;;5052622;28;20207;-71
2022/04/05 02:17:14;;;;;;;9.70;7.87;;;2.90;1.00;;;;;;5052267;28;20280;-71
2022/04/05 02:19:41;;;;;;;11.63;7.90;;;3.00;1.00;;;;;;5052965;28;20253;-71
2022/04/05 02:22:08;;;;;;;9.57;8.40;;;2.90;1.00;;;;;;5052933;28;20203;-71
2022/04/05 02:24:35;;;;;;;10.03;7.77;;;2.70;1.00;;;;;;5052830;28;20734;-70
2022/04/05 02:27:02;;;;;;;11.67;8.50;;;2.50;1.00;;;;;;5052529;28;20674;-69
2022/04/05 02:29:29;;;;;;;11.77;8.60;;;2.50;1.00;;;;;;5051541;28;20202;-69
2022/04/05 02:31:56;;;;;;;8.60;7.43;;;2.50;1.00;;;;;;5070954;28;20688;-69
2022/04/05 02:34:25;;;;;;;11.80;9.03;;;2.40;1.00;;;;;;5072189;28;20252;-69
2022/04/05 02:36:52;;;;;;;13.23;8.90;;;2.40;1.00;;;;;;5072106;28;20275;-69
2022/04/05 02:39:19;;;;;;;10.57;7.80;;;2.30;1.00;;;;;;5072006;28;20202;-69
2022/04/05 02:41:46;;;;;;;9.87;8.67;;;2.40;1.00;;;;;;5072319;28;20224;-69
2022/04/05 02:44:13;;;;;;;11.80;10.50;;;2.30;1.00;;;;;;5071954;28;20198;-69
2022/04/05 02:46:39;;;;;;;7.93;6.90;;;2.30;1.00;;;;;;5072475;28;20256;-72
2022/04/05 02:49:06;;;;;;;10.17;7.67;;;2.20;1.00;;;;;;5072539;28;20256;-73
2022/04/05 02:51:35;;;;;;;11.60;7.90;;;2.30;1.00;;;;;;5072088;28;20210;-73
2022/04/05 02:54:02;;;;;;;10.23;9.13;;;2.40;1.00;;;;;;5072234;28;20719;-73
2022/04/05 02:56:29;;;;;;;9.27;8.17;;;2.20;1.00;;;;;;5071559;28;20240;-73
2022/04/05 02:58:56;;;;;;;10.47;7.63;;;2.20;1.00;;;;;;5071529;28;20241;-73
2022/04/05 03:01:23;;;;;;;10.73;7.17;;;2.30;1.00;;;;;;5071540;28;20276;-70
2022/04/05 03:03:50;;;;;;;8.63;7.70;;;2.20;1.00;;;;;;5071954;28;20280;-71
2022/04/05 03:06:17;;;;;;;10.47;7.87;;;2.10;1.00;;;;;;5071469;28;20255;-71
2022/04/05 03:08:46;;;;;;;11.13;7.43;;;2.10;1.00;;;;;;5071730;28;20285;-70
2022/04/05 03:11:13;;;;;;;8.93;7.43;;;2.20;1.00;;;;;;5071221;28;20573;-71
2022/04/05 03:13:40;;;;;;;8.27;7.47;;;2.30;1.00;;;;;;5071482;28;20255;-70
2022/04/05 03:16:07;;;;;;;10.37;7.30;;;2.30;1.00;;;;;;5071988;28;20293;-72
2022/04/05 03:18:34;;;;;;;10.80;7.50;;;2.30;1.00;;;;;;5071390;28;20596;-72
2022/04/05 03:21:01;;;;;;;9.80;7.73;;;2.30;1.00;;;;;;5071482;28;20661;-73
2022/04/05 03:23:28;;;;;;;14.37;8.10;;;2.30;1.00;;;;;;5070921;28;20755;-73
2022/04/05 03:25:57;;;;;;;8.90;8.00;;;2.40;1.00;;;;;;5071789;28;20202;-73
2022/04/05 03:28:24;;;;;;;9.37;7.90;;;2.10;1.00;;;;;;5070961;28;20350;-73
2022/04/05 03:30:51;;;;;;;9.57;7.67;;;2.10;1.00;;;;;;5071518;28;20586;-74
2022/04/05 03:33:18;;;;;;;12.80;7.43;;;2.10;1.00;;;;;;5071392;28;20210;-74
2022/04/05 03:35:46;;;;;;;8.97;7.20;;;2.30;1.00;;;;;;5071252;28;20279;-74
2022/04/05 03:38:13;;;;;;;11.10;7.83;;;2.20;1.00;;;;;;5070994;28;20269;-73
2022/04/05 03:40:41;;;;;;;11.03;8.17;;;2.00;1.00;;;;;;5071191;28;20666;-73
2022/04/05 03:43:12;;;;;;;12.43;7.80;;;2.00;1.00;;;;;;5071345;28;20209;-73
2022/04/05 03:45:39;;;;;;;8.33;7.50;;;2.00;1.00;;;;;;5071253;28;20233;-73
2022/04/05 03:48:07;;;;;;;10.43;7.67;;;2.10;1.00;;;;;;5071418;28;20258;-73
2022/04/05 03:50:34;;;;;;;8.67;7.43;;;2.10;1.00;;;;;;5070914;28;20232;-73
2022/04/05 03:53:01;;;;;;;8.23;7.37;;;2.10;1.00;;;;;;5071305;28;20275;-73
2022/04/05 03:55:28;;;;;;;10.13;8.63;;;2.00;1.00;;;;;;5070764;28;20260;-74
2022/04/05 03:57:55;;;;;;;11.27;7.90;;;2.00;1.00;;;;;;5070641;28;20226;-73
2022/04/05 04:00:23;;;;;;;9.97;7.17;;;2.00;1.00;;;;;;5070496;28;20232;-73
2022/04/05 04:02:50;;;;;;;8.73;7.60;;;2.00;1.00;;;;;;5070939;28;20263;-73
2022/04/05 04:05:20;;;;;;;11.33;6.30;;;2.10;1.00;;;;;;5070537;28;20198;-73
2022/04/05 04:07:48;;;;;;;8.53;7.63;;;2.10;1.00;;;;;;5071352;28;20198;-73
2022/04/05 04:10:15;;;;;;;7.80;6.63;;;2.00;1.00;;;;;;5070420;28;20205;-73
2022/04/05 04:12:42;;;;;;;10.67;7.90;;;2.10;1.00;;;;;;5070685;28;20198;-72
2022/04/05 04:15:10;;;;;;;12.20;8.37;;;1.90;1.00;;;;;;5070680;28;20556;-73
2022/04/05 04:17:38;;;;;;;8.97;7.30;;;1.80;1.00;;;;;;5070933;28;20233;-73
2022/04/05 04:20:07;;;;;;;11.63;8.37;;;1.90;1.00;;;;;;5070965;28;20206;-72
2022/04/05 04:22:34;;;;;;;13.63;8.03;;;1.70;1.00;;;;;;5070027;28;20622;-73
2022/04/05 04:25:01;;;;;;;12.07;7.73;;;1.60;1.00;;;;;;5070585;28;20206;-73
2022/04/05 04:27:28;;;;;;;10.17;8.47;;;1.70;1.00;;;;;;5070292;28;20210;-73
2022/04/05 04:29:54;;;;;;;9.07;7.73;;;1.70;1.00;;;;;;5070523;28;20257;-73
2022/04/05 04:32:21;;;;;;;10.97;7.23;;;1.90;1.00;;;;;;5066644;28;20677;-73
2022/04/05 04:34:50;;;;;;;12.87;8.13;;;2.00;1.00;;;;;;5070622;28;20209;-73
2022/04/05 04:37:17;;;;;;;11.27;7.87;;;1.80;1.00;;;;;;5070117;28;20229;-72
2022/04/05 04:39:44;;;;;;;9.73;7.47;;;1.60;1.00;;;;;;5070284;28;20636;-73
2022/04/05 04:42:12;;;;;;;8.17;7.37;;;1.70;1.00;;;;;;5070204;28;20202;-72
2022/04/05 04:44:39;;;;;;;9.83;8.07;;;1.60;1.00;;;;;;5070349;28;20217;-73
2022/04/05 04:47:07;;;;;;;11.37;8.00;;;1.50;1.00;;;;;;5070998;28;20206;-73
2022/04/05 04:49:34;;;;;;;12.03;8.30;;;1.50;1.00;;;;;;5070389;28;20298;-73
2022/04/05 04:52:02;;;;;;;12.47;8.57;;;1.50;1.00;;;;;;5070413;28;20565;-71
2022/04/05 04:54:29;;;;;;;9.70;8.07;;;1.60;1.00;;;;;;5069717;28;20742;-72
2022/04/05 04:56:56;;;;;;;8.47;6.70;;;1.70;1.00;;;;;;5069927;28;20225;-71
2022/04/05 04:59:23;;;;;;;10.03;7.97;;;1.80;1.00;;;;;;5069686;28;20315;-71
2022/04/05 05:01:50;;;;;;;10.90;7.53;;;1.50;1.00;;;;;;5069844;28;20776;-71
2022/04/05 05:04:17;;;;;;;11.93;8.10;;;1.60;1.00;;;;;;5069994;28;20560;-71
2022/04/05 05:06:44;;;;;;;11.30;7.30;;;2.10;1.00;;;;;;5070292;28;20259;-71
2022/04/05 05:09:12;;;;;;;8.83;7.33;;;1.70;1.00;;;;;;5069770;28;20247;-72
2022/04/05 05:11:39;;;;;;;9.90;8.87;;;1.60;1.00;;;;;;5069705;28;20248;-71
2022/04/05 05:14:06;;;;;;;9.00;8.10;;;1.80;1.00;;;;;;5070498;28;20202;-71
2022/04/05 05:16:34;;;;;;;14.10;8.17;;;1.60;1.00;;;;;;5069975;28;20618;-72
2022/04/05 05:19:01;;;;;;;9.57;7.47;;;1.40;1.00;;;;;;5070160;28;20241;-71
2022/04/05 05:21:28;;;;;;;9.70;7.70;;;1.50;1.00;;;;;;5069947;28;20361;-71
2022/04/05 05:23:55;;;;;;;13.67;9.77;;;1.50;1.00;;;;;;5069871;28;20202;-71
2022/04/05 05:26:24;;;;;;;13.20;11.07;;;1.50;1.00;;;;;;5069759;28;20252;-71
2022/04/05 05:28:51;;;;;;;14.40;11.40;;;1.30;1.00;;;;;;5070448;28;20261;-72
2022/04/05 05:31:18;;;;;;;16.93;14.30;;;1.30;1.00;;;;;;5069698;28;20698;-72
2022/04/05 05:33:45;;;;;;;10.20;9.10;;;1.50;1.00;;;;;;5070074;28;20202;-72
2022/04/05 05:36:11;;;;;;;13.17;11.20;;;1.70;1.00;;;;;;5072194;28;20247;-71
2022/04/05 05:38:39;;;;;;;10.17;9.17;;;1.70;1.00;;;;;;5073295;28;20226;-72
2022/04/05 05:41:06;;;;;;;10.17;8.00;;;1.40;1.00;;;;;;5073751;28;20202;-71
2022/04/05 05:43:34;;;;;;;9.60;8.63;;;1.30;1.00;;;;;;5073087;28;20677;-71
2022/04/05 05:46:03;;;;;;;15.57;9.70;;;1.30;1.00;;;;;;5073450;28;20224;-71
2022/04/05 05:48:30;;;;;;;14.73;12.07;;;1.50;1.00;;;;;;5073120;28;20292;-71
2022/04/05 05:50:58;;;;;;;12.17;9.40;;;1.70;1.00;;;;;;5073485;28;20285;-71
2022/04/05 05:53:25;;;;;;;16.27;10.87;;;1.70;1.00;;;;;;5072644;28;20202;-71
2022/04/05 05:55:52;;;;;;;15.93;9.93;;;1.80;1.00;;;;;;5073516;28;20202;-71
2022/04/05 05:58:19;;;;;;;11.53;9.17;;;1.80;1.00;;;;;;5072656;28;20682;-71
2022/04/05 06:00:48;;;;;;;12.30;7.57;;;1.90;1.00;;;;;;5072742;28;20251;-71
2022/04/05 06:03:15;;;;;;;10.97;9.00;;;1.90;1.00;;;;;;5070282;28;20265;-71
2022/04/05 06:05:43;;;;;;;9.03;8.07;;;2.00;1.00;;;;;;5064029;28;20263;-71
2022/04/05 06:08:10;;;;;;;9.50;7.70;;;2.10;1.00;;;;;;5072494;28;20217;-72
2022/04/05 06:10:37;;;;;;;9.30;7.53;;;2.20;1.00;;;;;;5073505;28;20264;-72
2022/04/05 06:13:05;;;;;;;13.47;8.63;;;2.20;1.00;;;;;;5073188;28;20209;-72
2022/04/05 06:15:32;;;;;;;9.67;7.40;;;2.00;1.00;;;;;;5072605;28;20620;-71
2022/04/05 06:18:00;;;;;;;10.33;8.10;;;2.00;1.00;;;;;;5072776;28;20253;-72
2022/04/05 06:20:28;;;;;;;11.70;8.23;;;2.10;1.00;;;;;;5072427;28;20257;-72
2022/04/05 06:22:57;;;;;;;14.47;9.30;;;2.20;1.00;;;;;;5072907;28;20202;-71
2022/04/05 06:25:27;;;;;;;12.23;8.30;;;2.50;1.00;;;;;;5072431;28;20206;-72
2022/04/05 06:27:54;;;;;;;12.23;9.37;;;2.60;1.00;;;;;;5072799;28;20203;-72
2022/04/05 06:30:21;;;;;;;9.60;8.57;;;2.60;1.00;;;;;;5072418;28;20202;-73
2022/04/05 06:32:48;;;;;;;14.23;8.37;;;2.70;1.00;;;;;;5069107;28;20556;-73
2022/04/05 06:35:17;;;;;;;16.83;10.93;;;2.80;1.00;;;;;;5071901;28;20245;-74
2022/04/05 06:37:45;;;;;;;13.13;8.77;;;2.90;1.00;;;;;;5072283;28;20209;-73
2022/04/05 06:40:14;;;;;;;11.70;8.87;;;3.00;1.00;;;;;;5071960;28;20259;-73
2022/04/05 06:42:43;;;;;;;10.37;7.50;;;2.90;1.00;;;;;;5072418;28;20211;-73
2022/04/05 06:45:15;;;;;;;9.33;6.93;;;2.80;1.00;;;;;;5072075;28;20210;-73
2022/04/05 06:47:42;;;;;;;11.80;7.67;;;2.90;1.00;;;;;;5071944;28;20199;-73
2022/04/05 06:50:11;;;;;;;11.17;7.97;;;3.20;1.00;;;;;;5071901;28;20727;-73
2022/04/05 06:52:41;;;;;;;9.70;7.57;;;3.40;1.00;;;;;;5072346;28;20218;-73
2022/04/05 06:55:09;;;;;;;10.93;8.57;;;3.30;1.00;;;;;;5072368;28;20206;-73
2022/04/05 06:57:36;;;;;;;11.23;7.70;;;3.50;1.00;;;;;;5072164;28;20214;-74
2022/04/05 07:00:06;;;;;;;7.83;6.60;;;3.60;1.00;;;;;;5071988;28;20226;-74
2022/04/05 07:02:33;;;;;;;13.33;7.33;;;3.80;1.00;;;;;;5071804;28;20283;-74
2022/04/05 07:05:00;;;;;;;9.10;6.80;;;3.80;1.00;;;;;;5071633;28;20252;-73
2022/04/05 07:07:27;;;;;;;9.37;7.37;;;3.90;1.00;;;;;;5071473;28;20205;-74
2022/04/05 07:09:55;;;;;;;13.93;8.93;;;4.00;1.00;;;;;;5071880;28;20210;-74
2022/04/05 07:12:23;;;;;;;9.07;7.63;;;4.10;1.00;;;;;;5071370;28;20206;-73
2022/04/05 07:14:51;;;;;;;10.30;7.90;;;4.10;1.00;;;;;;5071439;28;20221;-74
2022/04/05 07:17:18;;;;;;;8.03;7.23;;;4.10;1.00;;;;;;5071246;28;20301;-74
2022/04/05 07:19:45;;;;;;;12.10;9.00;;;4.40;1.00;;;;;;5071477;28;20234;-74
2022/04/05 07:22:12;;;;;;;9.80;7.33;;;4.60;1.00;;;;;;5071152;28;20206;-73
2022/04/05 07:24:39;;;;;;;8.40;7.50;;;4.70;1.00;;;;;;5071513;28;20263;-73
2022/04/05 07:27:07;;;;;;;31.83;19.07;;;4.70;1.00;;;;;;5071606;28;20202;-71
2022/04/05 07:29:34;;;;;;;16.43;11.17;;;4.80;1.00;;;;;;5068914;28;20671;-71
2022/04/05 07:32:01;;;;;;;19.33;12.77;;;5.00;1.00;;;;;;5070230;28;20610;-71
2022/04/05 07:34:28;;;;;;;12.80;8.90;;;5.10;1.00;;;;;;5070731;28;20210;-71
2022/04/05 07:36:55;;;;;;;17.77;11.97;;;5.10;1.00;;;;;;5071348;28;20260;-71
2022/04/05 07:39:23;;;;;;;21.77;14.80;;;5.10;1.00;;;;;;5070855;28;20283;-71
2022/04/05 07:41:50;;;;;;;11.97;8.57;;;5.30;1.00;;;;;;5071122;28;20198;-71
2022/04/05 07:44:19;;;;;;;8.47;7.63;;;5.40;1.00;;;;;;5070992;28;20202;-71
2022/04/05 07:46:46;;;;;;;9.37;7.10;;;5.60;1.00;;;;;;5071364;28;20206;-71
2022/04/05 07:49:13;;;;;;;10.30;8.40;;;5.80;1.00;;;;;;5070367;28;20235;-71
2022/04/05 07:51:41;;;;;;;11.40;7.33;;;5.70;1.00;;;;;;5071128;28;20259;-71
2022/04/05 07:54:08;;;;;;;8.43;7.53;;;5.80;1.00;;;;;;5067556;28;20206;-70
2022/04/05 07:56:35;;;;;;;12.60;9.40;;;5.90;1.00;;;;;;5071213;28;20202;-71
2022/04/05 07:59:02;;;;;;;9.10;6.83;;;5.90;1.00;;;;;;5066393;28;20234;-71
2022/04/05 08:01:30;;;;;;;8.13;7.33;;;5.90;1.00;;;;;;5070662;28;20272;-71
2022/04/05 08:03:57;;;;;;;9.40;7.53;;;6.10;1.00;;;;;;5070865;28;20633;-71
2022/04/05 08:06:27;;;;;;;9.87;6.97;;;6.20;1.00;;;;;;5070545;28;20198;-71
2022/04/05 08:08:54;;;;;;;8.80;6.37;;;6.40;1.00;;;;;;5070903;28;20755;-71
2022/04/05 08:11:21;;;;;;;10.03;7.80;;;6.50;1.00;;;;;;5070385;28;20747;-71
2022/04/05 08:13:48;;;;;;;12.27;8.50;;;6.60;1.00;;;;;;5070740;28;20206;-71
2022/04/05 08:16:15;;;;;;;9.70;7.63;;;6.90;1.00;;;;;;5070412;28;20673;-71
2022/04/05 08:18:43;;;;;;;9.80;8.17;;;6.70;1.00;;;;;;5070425;28;20226;-71
2022/04/05 08:21:10;;;;;;;10.33;7.63;;;6.80;1.00;;;;;;5070251;28;20202;-71
2022/04/05 08:23:38;;;;;;;9.27;7.30;;;7.10;1.00;;;;;;5070998;28;20636;-71
2022/04/05 08:26:05;;;;;;;8.60;7.70;;;7.20;1.00;;;;;;5070991;28;20202;-71
2022/04/05 08:28:32;;;;;;;11.17;8.17;;;7.20;1.00;;;;;;5070241;28;20210;-71
2022/04/05 08:30:59;;;;;;;9.00;7.33;;;7.40;1.00;;;;;;5070660;28;20243;-71
2022/04/05 08:33:27;;;;;;;9.73;7.80;;;7.60;1.00;;;;;;5070063;28;20332;-71
2022/04/05 08:35:56;;;;;;;12.00;8.03;;;8.60;1.00;;;;;;5070526;28;20627;-71
2022/04/05 08:38:23;;;;;;;8.40;7.37;;;11.20;1.00;;;;;;5069887;28;20231;-71
2022/04/05 08:40:50;;;;;;;8.30;7.00;;;10.80;1.00;;;;;;5070782;28;20206;-71
2022/04/05 08:43:17;;;;;;;10.03;8.23;;;9.40;1.00;;;;;;5070165;28;20790;-71
2022/04/05 08:45:46;;;;;;;9.10;7.87;;;8.80;1.00;;;;;;5070356;28;20279;-71
2022/04/05 08:48:14;;;;;;;11.07;8.53;;;8.50;1.00;;;;;;5070023;28;20202;-71
2022/04/05 08:50:42;;;;;;;12.27;8.23;;;9.00;1.00;;;;;;5070138;28;20355;-71
2022/04/05 08:53:10;;;;;;;10.93;8.10;;;9.10;1.00;;;;;;5070599;28;20203;-71
2022/04/05 08:55:37;;;;;;;14.87;9.50;;;9.10;1.00;;;;;;5070518;28;20743;-71
2022/04/05 08:58:05;;;;;;;10.67;7.90;;;9.20;1.00;;;;;;5070545;28;20210;-71
2022/04/05 09:00:32;;;;;;;9.93;8.33;;;9.80;1.00;;;;;;5069685;28;20234;-71
2022/04/05 09:03:00;;;;;;;9.73;7.93;;;9.90;1.00;;;;;;5070040;28;20260;-71
2022/04/05 09:05:29;;;;;;;8.80;7.83;;;9.60;1.00;;;;;;5070103;28;20202;-71
2022/04/05 09:08:15;;;;;;;8.43;7.37;;;9.70;1.00;;;;;;5070457;28;20258;-71
2022/04/05 09:10:42;;;;;;;9.73;7.80;;;9.50;1.00;;;;;;5073705;28;20677;-71
2022/04/05 09:13:11;;;;;;;13.97;8.93;;;9.60;1.00;;;;;;5073934;28;20202;-71
2022/04/05 09:15:40;;;;;;;26.63;9.57;;;9.60;1.00;;;;;;5073963;28;20296;-71
2022/04/05 09:18:07;;;;;;;10.87;8.50;;;9.60;1.00;;;;;;5074117;28;20681;-71
2022/04/05 09:20:45;;;;;;;14.00;7.83;;;9.90;1.00;;;;;;5073644;28;20708;-71
2022/04/05 09:23:25;;;;;;;11.40;8.30;;;10.10;1.00;;;;;;5073471;28;20259;-71
2022/04/05 09:26:00;;;;;;;11.97;9.20;;;10.50;1.00;;;;;;5073764;28;20206;-71
2022/04/05 09:28:32;;;;;;;11.80;9.20;;;11.40;1.00;;;;;;5073400;28;20209;-71
2022/04/05 09:31:01;;;;;;;22.77;8.63;;;11.90;1.00;;;;;;5073561;28;20205;-71
2022/04/05 09:33:30;;;;;;;10.73;8.47;;;11.70;1.00;;;;;;5073387;28;20600;-71
2022/04/05 09:36:07;;;;;;;10.17;8.97;;;11.50;1.00;;;;;;5073592;28;20205;-71
2022/04/05 09:38:36;;;;;;;12.33;8.80;;;11.60;1.00;;;;;;5073178;28;20208;-71
2022/04/05 09:41:11;;;;;;;11.60;8.83;;;11.80;1.00;;;;;;5074148;28;20232;-71
2022/04/05 09:43:38;;;;;;;10.33;8.53;;;12.20;1.00;;;;;;5073406;28;20617;-71
2022/04/05 09:46:05;;;;;;;11.93;7.82;;;12.80;1.00;;;;;;5073905;28;20228;-71
2022/04/05 09:48:35;;;;;;;12.43;7.75;;;14.30;1.00;;;;;;5073060;28;20202;-71
2022/04/05 09:51:09;;;;;;;10.65;8.15;;;13.30;1.00;;;;;;5073107;28;20213;-71
2022/04/05 09:53:50;;;;;;;14.18;8.00;;;13.30;1.00;;;;;;5073421;28;20213;-72
2022/04/05 09:56:18;;;;;;;9.05;7.38;;;14.40;1.00;;;;;;5072832;28;20202;-71
2022/04/05 09:58:48;;;;;;;9.25;8.18;;;16.60;1.00;;;;;;5072741;28;20210;-71
2022/04/05 10:01:16;;;;;;;8.50;7.25;;;17.30;1.00;;;;;;5069176;28;20232;-71
2022/04/05 10:03:55;;;;;;;10.88;7.97;;;14.70;1.00;;;;;;5073009;28;20673;-72
2022/04/05 10:06:23;;;;;;;7.72;5.90;;;13.90;1.00;;;;;;5072719;28;20206;-72
2022/04/05 10:08:51;;;;;;;7.75;6.50;;;13.30;1.00;;;;;;5073205;28;20206;-73
2022/04/05 10:11:18;;;;;;;8.70;6.85;;;14.60;1.00;;;;;;5072680;28;20202;-72
2022/04/05 10:13:45;;;;;;;8.85;5.55;;;19.60;1.00;;;;;;5072549;28;20210;-74
2022/04/05 10:16:14;;;;;;;7.68;5.75;;;21.20;1.00;;;;;;5072501;28;20268;-72
2022/04/05 10:18:41;;;;;;;9.10;6.40;;;18.80;1.00;;;;;;5073058;28;20206;-72
2022/04/05 10:21:12;;;;;;;10.00;7.43;;;15.90;1.00;;;;;;5064015;28;20207;-71
2022/04/05 10:23:43;;;;;;;9.77;6.13;;;14.60;1.00;;;;;;5067006;28;20585;-72
2022/04/05 10:26:16;;;;;;;8.07;6.63;;;17.00;1.00;;;;;;5070146;28;20248;-70
2022/04/05 10:28:45;;;;;;;16.33;6.60;;;20.10;1.00;;;;;;5052506;28;20264;-71
2022/04/05 10:31:18;;;;;;;7.80;7.00;;;21.00;1.00;;;;;;5052280;28;20210;-71
2022/04/05 10:33:53;;;;;;;10.40;8.30;;;20.60;1.00;;;;;;5062578;28;20186;-71
2022/04/05 10:36:23;;;;;;;9.13;6.60;;;17.70;1.00;;;;;;5071744;28;20726;-71
2022/04/05 10:39:13;;;;;;;8.80;6.85;;;14.40;1.00;;;;;;5071549;28;20208;-71
2022/04/05 10:41:42;;;;;;;7.75;6.72;;;12.90;1.00;;;;;;5072208;28;20284;-71
2022/04/05 10:44:24;;;;;;;9.93;7.25;;;13.10;1.00;;;;;;5072462;28;20202;-70
2022/04/05 10:46:57;;;;;;;8.82;7.38;;;13.30;1.00;;;;;;5072358;28;20281;-71
2022/04/05 10:49:39;;;;;;;10.85;6.65;;;13.30;1.00;;;;;;5071830;28;20206;-71
2022/04/05 10:52:09;;;;;;;9.95;7.07;;;13.10;1.00;;;;;;5064064;28;20635;-73
2022/04/05 10:54:39;;;;;;;11.82;6.35;;;13.00;1.00;;;;;;5071796;28;20264;-70
2022/04/05 10:57:28;;;;;;;7.13;5.43;;;12.30;1.00;;;;;;5066885;28;20213;-70
2022/04/05 10:59:57;;;;;;;10.50;6.57;;;12.20;1.00;;;;;;5070838;28;20704;-70
2022/04/05 11:02:35;;;;;;;11.23;6.18;;;12.30;1.00;;;;;;5071510;28;20742;-71
2022/04/05 11:05:28;;;;;;;9.90;6.50;;;12.60;1.00;;;;;;5072058;28;20205;-71
2022/04/05 11:08:03;;;;;;;9.73;6.33;;;13.20;1.00;;;;;;5071922;28;20329;-71
2022/04/05 11:10:31;;;;;;;9.27;6.70;;;12.80;1.00;;;;;;5071465;28;20551;-71
2022/04/05 11:13:08;;;;;;;11.93;5.70;;;12.60;1.00;;;;;;5071634;28;20205;-71
2022/04/05 11:15:42;;;;;;;8.43;6.40;;;13.10;1.00;;;;;;5072102;28;20267;-71
2022/04/05 11:18:10;;;;;;;8.43;6.10;;;13.20;1.00;;;;;;5071961;28;20259;-72
2022/04/05 11:20:39;;;;;;;9.40;6.27;;;13.20;1.00;;;;;;5071861;28;20279;-73
2022/04/05 11:23:06;;;;;;;13.77;6.73;;;13.30;1.00;;;;;;5071328;28;20206;-71
2022/04/05 11:25:33;;;;;;;12.70;6.38;;;13.10;1.00;;;;;;5071224;28;20198;-71
2022/04/05 11:28:16;;;;;;;9.93;6.15;;;13.30;1.00;;;;;;5071665;28;20206;-71
2022/04/05 11:30:49;;;;;;;9.97;6.13;;;13.10;1.00;;;;;;5071538;28;20210;-71
2022/04/05 11:33:22;;;;;;;7.05;5.40;;;13.00;1.00;;;;;;5070991;28;20206;-71
2022/04/05 11:35:50;;;;;;;8.52;5.97;;;12.90;1.00;;;;;;5071444;28;20224;-72
2022/04/05 11:38:29;;;;;;;9.80;5.80;;;12.80;1.00;;;;;;5070779;28;20207;-72
2022/04/05 11:41:00;;;;;;;10.93;7.72;;;12.90;1.00;;;;;;5070946;28;20716;-72
2022/04/05 11:43:30;;;;;;;10.13;5.32;;;13.30;1.00;;;;;;5068591;28;20234;-74
2022/04/05 11:45:59;;;;;;;10.70;6.10;;;13.00;1.00;;;;;;5051009;28;20655;-72
2022/04/05 11:48:28;;;;;;;9.85;7.10;;;12.80;1.00;;;;;;5050706;28;20229;-72
2022/04/05 11:50:58;;;;;;;12.00;7.53;;;12.80;1.00;;;;;;5050936;28;20574;-71
2022/04/05 11:53:27;;;;;;;10.87;7.17;;;13.00;1.00;;;;;;5050865;28;20207;-71
2022/04/05 11:56:16;;;;;;;8.35;6.55;;;13.40;1.00;;;;;;5050901;28;20253;-71
2022/04/05 11:58:47;;;;;;;9.23;6.15;;;13.50;1.00;;;;;;5050894;28;20272;-71
2022/04/05 12:01:16;;;;;;;10.88;5.70;;;13.20;1.00;;;;;;5058292;28;20713;-72
2022/04/05 12:03:46;;;;;;;9.68;5.82;;;13.20;1.00;;;;;;5070964;28;20205;-71
2022/04/05 12:06:14;;;;;;;12.93;5.72;;;13.60;1.00;;;;;;5070773;28;20206;-71
2022/04/05 12:08:41;;;;;;;8.00;5.60;;;14.00;1.00;;;;;;5070666;28;20256;-71
2022/04/05 12:11:09;;;;;;;9.10;6.50;;;14.40;1.00;;;;;;5070241;28;20210;-71
2022/04/05 12:13:37;;;;;;;6.70;5.97;;;14.20;1.00;;;;;;5071310;28;20202;-71
2022/04/05 12:16:07;;;;;;;10.00;5.53;;;14.20;1.00;;;;;;5071232;28;20689;-71
2022/04/05 12:18:34;;;;;;;9.40;6.25;;;14.10;1.00;;;;;;5070832;28;20202;-71
2022/04/05 12:21:03;;;;;;;7.40;5.70;;;14.20;1.00;;;;;;5070682;28;20283;-72
2022/04/05 12:23:33;;;;;;;7.10;5.25;;;13.70;1.00;;;;;;5070381;28;20214;-72
2022/04/05 12:26:12;;;;;;;10.80;5.88;;;13.90;1.00;;;;;;5070545;28;20255;-72
2022/04/05 12:28:40;;;;;;;7.18;5.22;;;14.10;1.00;;;;;;5070711;28;20284;-72
2022/04/05 12:31:15;;;;;;;12.20;5.70;;;14.20;1.00;;;;;;5071016;28;20198;-72
2022/04/05 12:33:54;;;;;;;6.25;5.32;;;13.90;1.00;;;;;;5070438;28;20205;-72
2022/04/05 12:36:22;;;;;;;6.55;5.65;;;14.00;1.00;;;;;;5070125;28;20206;-72
2022/04/05 12:38:49;;;;;;;6.43;5.30;;;13.60;1.00;;;;;;5070479;28;20248;-72
2022/04/05 12:41:17;;;;;;;6.80;4.78;;;14.00;1.00;;;;;;5070139;28;20234;-72
2022/04/05 12:43:46;;;;;;;7.03;5.32;;;14.30;1.00;;;;;;5070998;28;20202;-71
2022/04/05 12:46:15;;;;;;;10.75;4.38;;;14.40;1.00;;;;;;5074652;28;20244;-72
2022/04/05 12:48:43;;;;;;;6.68;4.97;;;14.40;1.00;;;;;;5074598;28;20741;-72
2022/04/05 12:51:10;;;;;;;5.43;4.70;;;14.40;1.00;;;;;;5074648;28;20267;-72
2022/04/05 12:53:39;;;;;;;5.45;4.68;;;14.40;1.00;;;;;;5074532;28;20731;-73
2022/04/05 12:56:13;;;;;;;9.15;5.63;;;14.60;1.00;;;;;;5074781;28;20202;-72
2022/04/05 12:58:45;;;;;;;9.13;5.15;;;14.60;1.00;;;;;;5074291;28;20212;-72
2022/04/05 13:01:25;;;;;;;6.78;4.10;;;14.50;1.00;;;;;;5073797;28;20601;-71
2022/04/05 13:04:01;;;;;;;8.98;5.60;;;14.50;1.00;;;;;;5074191;28;20205;-73
2022/04/05 13:06:29;;;;;;;7.82;5.40;;;14.10;1.00;;;;;;5073945;28;20202;-71